Odate Noshiro, Japan

12:29 PM JST on August 29, 2015 (GMT +0900)
Odate-Noshiro | | Change Station
CLOSE
Current Station
Airport
Location: Odate Noshiro,
Elevation: 285 ft
Nearby Weather Stations

Elev 285 ft 40.19 °N, 140.37 °E | Updated 29 minutes ago

Scattered Clouds
Scattered Clouds
73 °F
Feels Like 73 °F
N
6
Wind Variable Wind from East

Today
High -- | Low -- °F
--% Chance of Precip.
Yesterday
High -- | Low -- °F
Precip. -- in
5:02 AM 6:16 PM
Waxing Gibbous, 99% visible
Pressure 29.92 in
Visibility 6.2 miles
Clouds Few 2000 ft
Scattered Clouds 4000 ft
Dew Point 66 °F
Humidity 78%
Rainfall 0.00 in
Snow Depth Not available.
UV 6 out of 12
Pollen Not available.
Air Quality Not available.
Flu Activity Not available.
METAR RJSR 290300Z 08005KT 040V110 9999 FEW020 SCT040 BKN/// 23/19 Q1013
Pressure 29.92 in
Visibility 6.2 miles
Clouds Few 2000 ft
Scattered Clouds 4000 ft
Dew Point 66 °F
Humidity 78%
Rainfall 0.00 in
Snow Depth Not available.
UV 6 out of 12
Pollen Not available.
Air Quality Not available.
Flu Activity Not available.
METAR RJSR 290300Z 08005KT 040V110 9999 FEW020 SCT040 BKN/// 23/19 Q1013

10-Day Weather Forecast

×

Almanac

Astronomy

Aug. 29, 2015 Rise Set
Actual Time
Civil Twilight
Nautical Twilight
Astronomical Twilight
Moon
Length of Visible Light
Length of Day
Tomorrow will be .
, % of the Moon is Illuminated

Today's Extremes

Country Highs Country Lows

Community

WunderPhotos

Upload Photos

1,850,608 photos uploaded!

WunderBlogs® & News

Nearby

Air Quality

  Air Quality AQ Index Pollutant
Not available.

Snow Depth

Station Depth Elevation

Earthquake Activity

City Distance Mag. Time & Date
Minimum magnitude displayed is 2.5.

Coastal Water Temperatures

Place Temperature

Stations

Nearby Weather Stations

Station Location Temp. Windchill Dew Point Humidity Wind Precip. Elev Updated Type